ENSB/LYR METAR and TAF weather

Enter ICAO airport designator
Station Type Date Time Source
ENSB METAR 2018/07/20 13:50 UTC NOAA

ENSB 201350Z 26008KT 9999 FEW005 BKN020 08/06 Q1002 RMK WIND 1400FT 24005KT


Station Type Date Time Source
ENSB Decoded METAR 2018/07/20 13:50 UTC NOAA

Svalbard Lufthavn, Norway (ENSB) 78-15N 015-28E 29M
Jul 20, 2018 - 09:50 AM EDT / 2018.07.20 1350 UTC
Wind: from the W (260 degrees) at 9 MPH (8 KT):0
Visibility: greater than 7 mile(s):0
Sky conditions: mostly cloudy
Temperature: 46 F (8 C)
Dew Point: 42 F (6 C)
Relative Humidity: 87%
Pressure (altimeter): 29.59 in. Hg (1002 hPa)
ob: ENSB 201350Z 26008KT 9999 FEW005 BKN020 08/06 Q1002 RMK WIND 1400FT 24005KT
cycle: 14

Station Type Date Time Source
ENSB TAF 2018/07/20 12:59 UTC NOAA

TAF ENSB 201100Z 2012/2112 VRB05KT 9999 FEW020 BKN040
TEMPO 2012/2015 12010KT
BECMG 2100/2103 25010KT


Example: see airport list